Time;durP1;ratioP1;P1;durP2;ratioP2;P2;SDS_P1;SDS_P2;PMS_P1;PMS_P2;Temp;Humidity;BMP_temperature;BMP_pressure;BME280_temperature;BME280_humidity;BME280_pressure;Samples;Min_cycle;Max_cycle;Signal;HPM_P1;HPM_P2
2024/03/29 00:00:38;;;;;;;;;;;;;;;8.38;80.95;96618.65;105516;1257;62070;-40
2024/03/29 00:03:06;;;;;;;;;;;;;;;8.39;80.94;96612.02;105602;1254;62034;-40
2024/03/29 00:05:33;;;;;;;;;;;;;;;8.39;81.18;96608.64;105630;1257;75369;-43
2024/03/29 00:08:00;;;;;;;;;;;;;;;8.41;81.22;96608.17;105580;1257;67041;-40
2024/03/29 00:10:28;;;;;;;;;;;;;;;8.42;81.51;96609.91;105534;1256;72560;-40
2024/03/29 00:12:55;;;;;;;;;;;;;;;8.44;81.73;96606.48;105519;1254;62053;-39
2024/03/29 00:15:22;;;;;;;;;;;;;;;8.44;82.28;96605.30;105778;1257;62128;-39
2024/03/29 00:17:49;;;;;;;;;;;;;;;8.47;82.68;96605.23;105762;1254;75360;-39
2024/03/29 00:20:16;;;;;;;;;;;;;;;8.49;82.99;96607.89;105686;1257;65772;-38
2024/03/29 00:22:43;;;;;;;;;;;;;;;8.53;83.25;96607.15;105572;1254;72040;-39
2024/03/29 00:25:10;;;;;;;;;;;;;;;8.56;83.49;96609.61;106172;1257;61973;-38
2024/03/29 00:27:38;;;;;;;;;;;;;;;8.57;84.02;96607.13;105631;1253;62121;-39
2024/03/29 00:30:05;;;;;;;;;;;;;;;8.58;84.18;96605.78;106251;1253;76334;-42
2024/03/29 00:32:33;;;;;;;;;;;;;;;8.58;84.62;96601.44;105545;1258;65093;-41
2024/03/29 00:35:00;;;;;;;;;;;;;;;8.59;84.93;96597.42;105618;1254;72386;-41
2024/03/29 00:37:27;;;;;;;;;;;;;;;8.58;85.37;96595.04;105733;1258;61957;-41
2024/03/29 00:39:54;;;;;;;;;;;;;;;8.56;85.67;96589.32;105637;1254;62143;-40
2024/03/29 00:42:21;;;;;;;;;;;;;;;8.56;85.99;96585.48;105860;1253;75275;-39
2024/03/29 00:44:48;;;;;;;;;;;;;;;8.56;86.30;96586.93;105878;1254;64953;-40
2024/03/29 00:47:15;;;;;;;;;;;;;;;8.56;86.61;96587.09;105348;1260;72665;-39
2024/03/29 00:49:43;;;;;;;;;;;;;;;8.56;86.89;96585.05;105821;1253;62044;-38
2024/03/29 00:52:10;;;;;;;;;;;;;;;8.58;87.44;96595.20;105739;1254;62069;-40
2024/03/29 00:54:37;;;;;;;;;;;;;;;8.59;87.98;96594.63;105761;1256;75144;-39
2024/03/29 00:57:06;;;;;;;;;;;;;;;8.60;88.28;96590.02;105741;1254;66043;-35
2024/03/29 00:59:34;;;;;;;;;;;;;;;8.61;88.83;96593.19;105657;1254;72591;-44
2024/03/29 01:02:01;;;;;;;;;;;;;;;8.60;89.31;96593.75;105766;1256;62033;-42
2024/03/29 01:04:28;;;;;;;;;;;;;;;8.60;89.57;96592.21;105587;1254;62095;-40
2024/03/29 01:06:56;;;;;;;;;;;;;;;8.60;90.24;96590.70;105795;1253;76489;-42
2024/03/29 01:09:23;;;;;;;;;;;;;;;8.61;90.75;96587.27;105703;1253;65953;-45
2024/03/29 01:11:50;;;;;;;;;;;;;;;8.62;91.32;96585.38;105886;1254;72434;-43
2024/03/29 01:14:17;;;;;;;;;;;;;;;8.63;92.12;96582.15;105816;1256;62041;-40
2024/03/29 01:16:44;;;;;;;;;;;;;;;8.62;93.33;96580.98;105823;1256;62085;-40
2024/03/29 01:19:11;;;;;;;;;;;;;;;8.61;93.93;96576.42;105770;1253;74358;-40
2024/03/29 01:21:38;;;;;;;;;;;;;;;8.60;95.01;96571.59;105967;1254;65614;-40
2024/03/29 01:24:05;;;;;;;;;;;;;;;8.59;96.38;96570.23;105678;1254;72325;-40
2024/03/29 01:26:32;;;;;;;;;;;;;;;8.55;97.28;96566.24;105833;1257;62052;-39
2024/03/29 01:28:59;;;;;;;;;;;;;;;8.52;98.61;96567.55;105687;1254;62159;-40
2024/03/29 01:31:26;;;;;;;;;;;;;;;8.50;99.78;96562.63;105494;1259;75517;-39
2024/03/29 01:33:57;;;;;;;;;;;;;;;8.46;100.00;96563.30;105616;1254;65464;-45
2024/03/29 01:36:24;;;;;;;;;;;;;;;8.43;100.00;96563.91;105715;1252;72455;-43
2024/03/29 01:38:54;;;;;;;;;;;;;;;8.41;100.00;96563.67;105698;1257;62156;-41
2024/03/29 01:41:21;;;;;;;;;;;;;;;8.39;100.00;96569.90;105939;1254;62086;-41
2024/03/29 01:43:48;;;;;;;;;;;;;;;8.39;100.00;96569.50;105629;1254;75036;-43
2024/03/29 01:46:16;;;;;;;;;;;;;;;8.39;100.00;96569.16;105706;1254;65411;-41
2024/03/29 01:48:43;;;;;;;;;;;;;;;8.40;100.00;96569.24;105741;1253;72510;-40
2024/03/29 01:51:10;;;;;;;;;;;;;;;8.40;100.00;96574.15;105819;1256;62037;-41
2024/03/29 01:53:38;;;;;;;;;;;;;;;8.41;100.00;96575.73;105919;1256;62024;-42
2024/03/29 01:56:05;;;;;;;;;;;;;;;8.42;100.00;96580.99;105877;1257;75229;-42
2024/03/29 01:58:32;;;;;;;;;;;;;;;8.39;100.00;96585.13;105689;1254;66105;-38
2024/03/29 02:00:59;;;;;;;;;;;;;;;8.35;100.00;96590.05;105575;1254;72654;-38
2024/03/29 02:03:27;;;;;;;;;;;;;;;8.30;100.00;96590.88;105726;1254;62065;-39
2024/03/29 02:05:57;;;;;;;;;;;;;;;8.25;100.00;96593.75;105814;1255;62076;-42
2024/03/29 02:08:24;;;;;;;;;;;;;;;8.21;100.00;96589.99;105605;1253;75169;-42
2024/03/29 02:10:51;;;;;;;;;;;;;;;8.17;100.00;96594.22;105541;1254;66268;-42
2024/03/29 02:13:18;;;;;;;;;;;;;;;8.14;100.00;96591.33;105648;1253;72827;-41
2024/03/29 02:15:45;;;;;;;;;;;;;;;8.13;100.00;96590.50;105694;1254;62132;-38
2024/03/29 02:18:12;;;;;;;;;;;;;;;8.12;100.00;96600.52;105531;1254;62519;-38
2024/03/29 02:20:40;;;;;;;;;;;;;;;8.10;100.00;96608.06;105672;1259;75852;-39
2024/03/29 02:23:08;;;;;;;;;;;;;;;8.08;100.00;96601.99;105894;1256;65814;-39
2024/03/29 02:25:36;;;;;;;;;;;;;;;8.04;100.00;96595.58;105937;1254;71152;-39
2024/03/29 02:28:03;;;;;;;;;;;;;;;8.00;100.00;96593.67;105710;1254;62035;-40
2024/03/29 02:30:30;;;;;;;;;;;;;;;7.97;100.00;96596.04;105909;1253;62504;-40
2024/03/29 02:32:58;;;;;;;;;;;;;;;7.94;100.00;96597.44;105912;1256;75353;-39
2024/03/29 02:35:25;;;;;;;;;;;;;;;7.93;100.00;96600.04;105909;1254;66272;-39
2024/03/29 02:37:52;;;;;;;;;;;;;;;7.91;100.00;96600.00;105525;1256;73581;-40
2024/03/29 02:40:19;;;;;;;;;;;;;;;7.87;100.00;96595.27;105661;1256;62066;-41
2024/03/29 02:42:49;;;;;;;;;;;;;;;7.86;100.00;96597.66;105656;1254;62040;-41
2024/03/29 02:45:16;;;;;;;;;;;;;;;7.86;100.00;96606.52;106122;1253;75219;-42
2024/03/29 02:47:43;;;;;;;;;;;;;;;7.85;100.00;96609.85;105923;1254;66304;-41
2024/03/29 02:50:12;;;;;;;;;;;;;;;7.85;100.00;96613.14;106301;1254;72589;-39
2024/03/29 02:52:40;;;;;;;;;;;;;;;7.88;100.00;96617.76;105871;1256;62038;-39
2024/03/29 02:55:07;;;;;;;;;;;;;;;7.91;100.00;96618.61;106454;1254;62037;-40
2024/03/29 02:57:34;;;;;;;;;;;;;;;7.95;100.00;96618.58;105857;1254;75392;-39
2024/03/29 03:00:01;;;;;;;;;;;;;;;8.00;100.00;96619.21;105786;1256;65685;-39
2024/03/29 03:02:28;;;;;;;;;;;;;;;8.05;100.00;96617.64;105611;1254;72686;-40
2024/03/29 03:04:55;;;;;;;;;;;;;;;8.10;100.00;96616.71;105721;1257;61998;-39
2024/03/29 03:12:54;;;;;;;;;;;;;;;8.23;100.00;96624.83;105663;1254;65063;-55
2024/03/29 03:15:21;;;;;;;;;;;;;;;8.26;100.00;96628.41;105674;1254;72336;-41
2024/03/29 03:17:48;;;;;;;;;;;;;;;8.26;100.00;96632.37;105845;1254;62044;-37
2024/03/29 03:20:16;;;;;;;;;;;;;;;8.19;100.00;96630.87;105896;1254;62059;-38
2024/03/29 03:22:43;;;;;;;;;;;;;;;8.14;100.00;96631.01;105753;1254;76369;-40
2024/03/29 03:25:10;;;;;;;;;;;;;;;8.11;100.00;96632.09;105682;1256;66334;-39
2024/03/29 03:27:37;;;;;;;;;;;;;;;8.13;100.00;96629.39;105931;1254;72182;-40
2024/03/29 03:30:05;;;;;;;;;;;;;;;8.18;100.00;96621.14;105661;1257;62058;-39
2024/03/29 03:32:32;;;;;;;;;;;;;;;8.24;100.00;96612.60;105611;1254;62081;-39
2024/03/29 03:35:00;;;;;;;;;;;;;;;8.29;100.00;96611.33;105572;1256;76364;-40
2024/03/29 03:37:27;;;;;;;;;;;;;;;8.33;100.00;96605.79;105586;1256;65862;-39
2024/03/29 03:39:54;;;;;;;;;;;;;;;8.37;100.00;96601.35;105661;1254;72384;-39
2024/03/29 03:42:21;;;;;;;;;;;;;;;8.42;100.00;96597.85;105819;1254;62070;-41
2024/03/29 03:44:48;;;;;;;;;;;;;;;8.46;100.00;96600.52;105811;1254;62057;-43
2024/03/29 03:47:15;;;;;;;;;;;;;;;8.48;100.00;96598.93;105653;1253;75151;-39
2024/03/29 03:49:42;;;;;;;;;;;;;;;8.50;100.00;96593.45;105570;1256;65928;-41
2024/03/29 03:52:09;;;;;;;;;;;;;;;8.53;100.00;96597.05;105808;1253;72408;-41
2024/03/29 03:54:36;;;;;;;;;;;;;;;8.53;100.00;96594.58;105661;1256;62078;-39
2024/03/29 03:57:04;;;;;;;;;;;;;;;8.53;100.00;96593.35;105673;1254;62151;-40
2024/03/29 03:59:31;;;;;;;;;;;;;;;8.54;100.00;96587.59;105870;1253;74134;-40
2024/03/29 04:01:58;;;;;;;;;;;;;;;8.53;100.00;96587.61;105729;1254;66014;-39
2024/03/29 04:04:25;;;;;;;;;;;;;;;8.52;100.00;96587.96;105548;1254;72286;-39
2024/03/29 04:06:52;;;;;;;;;;;;;;;8.51;100.00;96587.77;105631;1256;62031;-39
2024/03/29 04:09:19;;;;;;;;;;;;;;;8.51;100.00;96585.09;105609;1254;62031;-39
2024/03/29 04:11:46;;;;;;;;;;;;;;;8.52;100.00;96586.36;105610;1256;75154;-38
2024/03/29 04:14:13;;;;;;;;;;;;;;;8.53;100.00;96583.77;105816;1256;65832;-39
2024/03/29 04:16:40;;;;;;;;;;;;;;;8.54;100.00;96580.84;105826;1254;72426;-44
2024/03/29 04:19:07;;;;;;;;;;;;;;;8.56;100.00;96578.48;105621;1256;61987;-40
2024/03/29 04:21:34;;;;;;;;;;;;;;;8.58;100.00;96580.78;105754;1256;62142;-43
2024/03/29 04:24:02;;;;;;;;;;;;;;;8.59;100.00;96578.77;105604;1253;75332;-40
2024/03/29 04:26:29;;;;;;;;;;;;;;;8.60;100.00;96586.60;105593;1254;67270;-40
2024/03/29 04:28:56;;;;;;;;;;;;;;;8.60;100.00;96587.41;105495;1254;72546;-40
2024/03/29 04:31:23;;;;;;;;;;;;;;;8.60;100.00;96591.55;105597;1254;62515;-40
2024/03/29 04:33:50;;;;;;;;;;;;;;;8.60;100.00;96597.92;105491;1254;62046;-37
2024/03/29 04:36:17;;;;;;;;;;;;;;;8.55;100.00;96595.66;105553;1253;75362;-38
2024/03/29 04:38:44;;;;;;;;;;;;;;;8.52;100.00;96599.05;105779;1256;66206;-39
2024/03/29 04:41:11;;;;;;;;;;;;;;;8.52;100.00;96596.19;105583;1254;72486;-40
2024/03/29 04:43:39;;;;;;;;;;;;;;;8.51;100.00;96598.75;105681;1257;62037;-41
2024/03/29 04:46:10;;;;;;;;;;;;;;;8.51;100.00;96597.09;105643;1254;62155;-41
2024/03/29 04:48:37;;;;;;;;;;;;;;;8.51;100.00;96600.52;105826;1256;75429;-42
2024/03/29 04:51:04;;;;;;;;;;;;;;;8.51;100.00;96603.83;105676;1256;66311;-39
2024/03/29 04:53:32;;;;;;;;;;;;;;;8.51;100.00;96603.94;105580;1254;72596;-40
2024/03/29 04:55:59;;;;;;;;;;;;;;;8.52;100.00;96607.92;105737;1254;61957;-44
2024/03/29 04:58:26;;;;;;;;;;;;;;;8.53;100.00;96612.04;105707;1252;62080;-41
2024/03/29 05:00:53;;;;;;;;;;;;;;;8.54;100.00;96612.24;105822;1256;76290;-41
2024/03/29 05:03:20;;;;;;;;;;;;;;;8.56;100.00;96614.56;105788;1254;66009;-39
2024/03/29 05:05:49;;;;;;;;;;;;;;;8.58;100.00;96618.08;105855;1254;72710;-42
2024/03/29 05:08:21;;;;;;;;;;;;;;;8.60;100.00;96614.25;105587;1254;62083;-39
2024/03/29 05:10:52;;;;;;;;;;;;;;;8.61;100.00;96613.04;105616;1254;62418;-38
2024/03/29 05:13:22;;;;;;;;;;;;;;;8.63;100.00;96619.92;105787;1254;74718;-38
2024/03/29 05:15:49;;;;;;;;;;;;;;;8.65;100.00;96623.50;105731;1254;66353;-39
2024/03/29 05:18:16;;;;;;;;;;;;;;;8.67;100.00;96631.70;105736;1254;72102;-38
2024/03/29 05:20:47;;;;;;;;;;;;;;;8.71;100.00;96636.30;105869;1256;62044;-40
2024/03/29 05:23:14;;;;;;;;;;;;;;;8.73;100.00;96638.70;105676;1257;62809;-40
2024/03/29 05:25:41;;;;;;;;;;;;;;;8.74;100.00;96644.00;105583;1256;75217;-40
2024/03/29 05:28:09;;;;;;;;;;;;;;;8.76;100.00;96648.19;105619;1254;65979;-40
2024/03/29 05:30:36;;;;;;;;;;;;;;;8.76;100.00;96654.94;105888;1254;72365;-40
2024/03/29 05:33:04;;;;;;;;;;;;;;;8.77;100.00;96656.41;105587;1254;61991;-39
2024/03/29 05:35:31;;;;;;;;;;;;;;;8.77;100.00;96662.55;105767;1252;62038;-40
2024/03/29 05:37:58;;;;;;;;;;;;;;;8.78;100.00;96666.60;105756;1254;76278;-38
2024/03/29 05:40:27;;;;;;;;;;;;;;;8.80;100.00;96662.95;105735;1256;63812;-39
2024/03/29 05:42:54;;;;;;;;;;;;;;;8.83;100.00;96662.13;105680;1254;72619;-39
2024/03/29 05:45:22;;;;;;;;;;;;;;;8.85;100.00;96660.34;106075;1256;62066;-39
2024/03/29 05:47:50;;;;;;;;;;;;;;;8.88;100.00;96665.61;105672;1254;62616;-39
2024/03/29 05:50:17;;;;;;;;;;;;;;;8.88;100.00;96672.86;106199;1254;75504;-39
2024/03/29 05:52:44;;;;;;;;;;;;;;;8.87;100.00;96680.95;105906;1256;66429;-41
2024/03/29 05:55:11;;;;;;;;;;;;;;;8.86;100.00;96686.00;106157;1254;72533;-39
2024/03/29 05:57:41;;;;;;;;;;;;;;;8.86;100.00;96691.98;105709;1254;62037;-41
2024/03/29 06:00:11;;;;;;;;;;;;;;;8.86;100.00;96703.20;106396;1254;62108;-43
2024/03/29 06:02:38;;;;;;;;;;;;;;;8.85;100.00;96707.92;105722;1256;75748;-35
2024/03/29 06:05:05;;;;;;;;;;;;;;;8.84;100.00;96721.27;106228;1254;64811;-33
2024/03/29 06:07:33;;;;;;;;;;;;;;;8.83;100.00;96726.95;105595;1253;72794;-34
2024/03/29 06:10:03;;;;;;;;;;;;;;;8.82;100.00;96731.14;105424;1254;62048;-33
2024/03/29 06:12:35;;;;;;;;;;;;;;;8.85;100.00;96738.42;105594;1254;62150;-40
2024/03/29 06:17:48;;;;;;;;;;;;;;;8.94;100.00;96758.57;105761;1256;65350;-39
2024/03/29 06:20:15;;;;;;;;;;;;;;;9.04;100.00;96765.10;105676;1254;72522;-37
2024/03/29 06:22:43;;;;;;;;;;;;;;;9.10;100.00;96772.95;105589;1254;62050;-37
2024/03/29 06:25:10;;;;;;;;;;;;;;;9.13;100.00;96778.73;105508;1255;62133;-40
2024/03/29 06:27:38;;;;;;;;;;;;;;;9.16;100.00;96783.49;105593;1259;76194;-35
2024/03/29 06:30:05;;;;;;;;;;;;;;;9.22;100.00;96794.23;105597;1256;66392;-38
2024/03/29 06:32:34;;;;;;;;;;;;;;;9.24;100.00;96800.86;105711;1254;72587;-34
2024/03/29 06:35:01;;;;;;;;;;;;;;;9.24;100.00;96808.23;105677;1254;61987;-35
2024/03/29 06:37:29;;;;;;;;;;;;;;;9.25;100.00;96818.04;105610;1256;61966;-35
2024/03/29 06:39:56;;;;;;;;;;;;;;;9.20;100.00;96828.92;105521;1261;76214;-35
2024/03/29 06:42:23;;;;;;;;;;;;;;;9.13;100.00;96842.48;106999;1253;66602;-36
2024/03/29 06:44:51;;;;;;;;;;;;;;;9.08;100.00;96857.66;105764;1254;71473;-37
2024/03/29 06:47:19;;;;;;;;;;;;;;;9.00;100.00;96872.67;105837;1254;62056;-39
2024/03/29 06:49:47;;;;;;;;;;;;;;;8.86;100.00;96875.86;105725;1254;62094;-38
2024/03/29 06:52:15;;;;;;;;;;;;;;;8.74;100.00;96898.47;105495;1259;76325;-40
2024/03/29 06:54:42;;;;;;;;;;;;;;;8.64;100.00;96904.96;105617;1254;67020;-40
2024/03/29 06:57:14;;;;;;;;;;;;;;;8.57;100.00;96912.14;105669;1254;72869;-39
2024/03/29 06:59:41;;;;;;;;;;;;;;;8.49;100.00;96915.44;105626;1254;62047;-38
2024/03/29 07:02:10;;;;;;;;;;;;;;;8.44;100.00;96927.29;105622;1254;62063;-39
2024/03/29 07:04:37;;;;;;;;;;;;;;;8.38;100.00;96946.14;105539;1257;75527;-38
2024/03/29 07:07:04;;;;;;;;;;;;;;;8.29;100.00;96950.77;105755;1254;66023;-41
2024/03/29 07:09:32;;;;;;;;;;;;;;;8.21;100.00;96965.19;105742;1254;73490;-39
2024/03/29 07:11:59;;;;;;;;;;;;;;;8.13;100.00;96973.43;105782;1253;62830;-39
2024/03/29 07:14:28;;;;;;;;;;;;;;;8.09;100.00;96979.16;105931;1258;62096;-42
2024/03/29 07:16:57;;;;;;;;;;;;;;;8.05;100.00;96984.52;105817;1254;75377;-39
2024/03/29 07:19:24;;;;;;;;;;;;;;;8.02;100.00;96994.56;105562;1254;66807;-39
2024/03/29 07:21:53;;;;;;;;;;;;;;;8.02;100.00;96999.05;105709;1253;73292;-38
2024/03/29 07:24:21;;;;;;;;;;;;;;;8.00;100.00;97009.23;105684;1256;62010;-35
2024/03/29 07:26:48;;;;;;;;;;;;;;;8.00;100.00;97010.23;105607;1253;62063;-39
2024/03/29 07:29:15;;;;;;;;;;;;;;;8.04;100.00;97014.63;105834;1256;75951;-39
2024/03/29 07:31:43;;;;;;;;;;;;;;;8.09;100.00;97015.49;105554;1256;66308;-40
2024/03/29 07:34:10;;;;;;;;;;;;;;;8.13;100.00;97021.23;105500;1254;73432;-40
2024/03/29 07:36:39;;;;;;;;;;;;;;;8.18;100.00;97026.89;106129;1257;62136;-38
2024/03/29 07:39:06;;;;;;;;;;;;;;;8.21;100.00;97042.89;105533;1253;62740;-37
2024/03/29 07:41:34;;;;;;;;;;;;;;;8.21;100.00;97045.35;105483;1254;76439;-37
2024/03/29 07:44:03;;;;;;;;;;;;;;;8.22;100.00;97045.80;105534;1254;67010;-39
2024/03/29 07:46:34;;;;;;;;;;;;;;;8.25;100.00;97051.71;105521;1254;72810;-35
2024/03/29 07:49:01;;;;;;;;;;;;;;;8.27;100.00;97077.43;105619;1256;62037;-36
2024/03/29 07:51:29;;;;;;;;;;;;;;;8.28;100.00;97087.38;105470;1254;62044;-35
2024/03/29 07:53:56;;;;;;;;;;;;;;;8.29;100.00;97101.67;105331;1259;76233;-39
2024/03/29 07:56:25;;;;;;;;;;;;;;;8.28;100.00;97117.91;105559;1256;67222;-38
2024/03/29 07:58:52;;;;;;;;;;;;;;;8.22;100.00;97123.56;105532;1257;73673;-38
2024/03/29 08:01:20;;;;;;;;;;;;;;;8.17;100.00;97130.50;105551;1254;62170;-37
2024/03/29 08:03:51;;;;;;;;;;;;;;;8.13;100.00;97132.88;105412;1254;62111;-38
2024/03/29 08:06:19;;;;;;;;;;;;;;;8.10;100.00;97134.27;105551;1253;76061;-38
2024/03/29 08:08:46;;;;;;;;;;;;;;;8.08;100.00;97122.30;105562;1256;66149;-39
2024/03/29 08:11:13;;;;;;;;;;;;;;;8.12;100.00;97126.77;105663;1254;73461;-37
2024/03/29 08:13:41;;;;;;;;;;;;;;;8.26;100.00;97145.13;105434;1253;62106;-38
2024/03/29 08:16:09;;;;;;;;;;;;;;;8.50;100.00;97159.28;106310;1253;62017;-39
2024/03/29 08:18:36;;;;;;;;;;;;;;;8.79;100.00;97172.47;105691;1254;77779;-38
2024/03/29 08:21:03;;;;;;;;;;;;;;;8.97;100.00;97182.73;105578;1256;67000;-38
2024/03/29 08:23:31;;;;;;;;;;;;;;;9.09;100.00;97196.48;105804;1254;72670;-37
2024/03/29 08:25:58;;;;;;;;;;;;;;;9.16;100.00;97207.44;105718;1254;61989;-39
2024/03/29 08:28:25;;;;;;;;;;;;;;;9.22;100.00;97212.39;105667;1254;62383;-38
2024/03/29 08:30:59;;;;;;;;;;;;;;;9.19;100.00;97215.00;105663;1254;77133;-39
2024/03/29 08:33:26;;;;;;;;;;;;;;;9.16;100.00;97216.04;105728;1256;66297;-40
2024/03/29 08:35:53;;;;;;;;;;;;;;;9.10;100.00;97235.09;105803;1255;73129;-38
2024/03/29 08:38:21;;;;;;;;;;;;;;;9.02;100.00;97222.67;105615;1254;62037;-36
2024/03/29 08:40:48;;;;;;;;;;;;;;;8.99;100.00;97225.00;105643;1256;62114;-36
2024/03/29 08:43:16;;;;;;;;;;;;;;;8.95;100.00;97232.54;105535;1257;75213;-38
2024/03/29 08:45:46;;;;;;;;;;;;;;;8.92;100.00;97242.38;105581;1254;65281;-39
2024/03/29 08:48:14;;;;;;;;;;;;;;;8.92;100.00;97241.69;105612;1254;73474;-41
2024/03/29 08:50:41;;;;;;;;;;;;;;;8.92;100.00;97256.17;105687;1254;61976;-38
2024/03/29 08:53:08;;;;;;;;;;;;;;;8.94;99.49;97261.02;105647;1254;62149;-38
2024/03/29 08:55:40;;;;;;;;;;;;;;;8.98;98.46;97257.70;105700;1256;76208;-37
2024/03/29 08:58:07;;;;;;;;;;;;;;;9.07;98.45;97259.66;105764;1256;65718;-40
2024/03/29 09:00:34;;;;;;;;;;;;;;;9.18;97.01;97260.67;105594;1254;73975;-38
2024/03/29 09:03:02;;;;;;;;;;;;;;;9.30;95.84;97261.39;105581;1252;63613;-38
2024/03/29 09:05:30;;;;;;;;;;;;;;;9.43;95.35;97254.31;107020;1251;62223;-39
2024/03/29 09:07:58;;;;;;;;;;;;;;;9.54;93.28;97256.00;105608;1252;76243;-38
2024/03/29 09:10:26;;;;;;;;;;;;;;;9.62;92.82;97260.79;105838;1256;66759;-37
2024/03/29 09:12:53;;;;;;;;;;;;;;;9.73;92.26;97258.73;105733;1254;73337;-38
2024/03/29 09:15:20;;;;;;;;;;;;;;;9.83;90.67;97265.25;105660;1254;62055;-38
2024/03/29 09:17:50;;;;;;;;;;;;;;;9.91;88.80;97265.88;105773;1254;62091;-39
2024/03/29 09:20:18;;;;;;;;;;;;;;;10.00;88.57;97266.67;105968;1257;74141;-39
2024/03/29 09:22:45;;;;;;;;;;;;;;;10.11;87.93;97267.53;105629;1254;66232;-40
2024/03/29 09:25:14;;;;;;;;;;;;;;;10.23;86.27;97260.63;105683;1254;73804;-39
2024/03/29 09:27:42;;;;;;;;;;;;;;;10.28;86.27;97255.03;105729;1255;62015;-44
2024/03/29 09:30:15;;;;;;;;;;;;;;;10.32;86.34;97256.34;105669;1255;62502;-38
2024/03/29 09:32:42;;;;;;;;;;;;;;;10.32;86.45;97260.49;105716;1255;76361;-38
2024/03/29 09:35:10;;;;;;;;;;;;;;;10.40;87.21;97257.75;106264;1256;68781;-39
2024/03/29 09:37:37;;;;;;;;;;;;;;;10.49;86.11;97259.28;105510;1252;72449;-40
2024/03/29 09:40:05;;;;;;;;;;;;;;;10.61;85.67;97274.02;109383;1253;59730;-39
2024/03/29 09:42:33;;;;;;;;;;;;;;;10.70;83.57;97281.48;105644;1257;62042;-39
2024/03/29 09:45:01;;;;;;;;;;;;;;;10.73;83.75;97284.52;105672;1256;76274;-39
2024/03/29 09:47:30;;;;;;;;;;;;;;;10.77;82.81;97279.65;105661;1254;66153;-38
2024/03/29 09:49:58;;;;;;;;;;;;;;;10.80;82.66;97281.17;105521;1254;73455;-41
2024/03/29 09:52:25;;;;;;;;;;;;;;;10.82;81.92;97279.38;105614;1256;62043;-37
2024/03/29 09:54:53;;;;;;;;;;;;;;;10.85;81.35;97290.08;105590;1254;62065;-35
2024/03/29 09:57:20;;;;;;;;;;;;;;;10.90;81.62;97296.08;105833;1254;75399;-38
2024/03/29 09:59:48;;;;;;;;;;;;;;;11.03;82.03;97295.30;105645;1256;67913;-38
2024/03/29 10:02:17;;;;;;;;;;;;;;;11.16;81.64;97296.70;105644;1254;73541;-36
2024/03/29 10:04:46;;;;;;;;;;;;;;;11.27;80.50;97307.72;105707;1256;62043;-38
2024/03/29 10:07:15;;;;;;;;;;;;;;;11.32;80.15;97315.50;105645;1254;62129;-36
2024/03/29 10:09:45;;;;;;;;;;;;;;;11.37;78.44;97320.93;105701;1254;76023;-36
2024/03/29 10:12:12;;;;;;;;;;;;;;;11.45;78.54;97327.90;105698;1256;65632;-44
2024/03/29 10:14:44;;;;;;;;;;;;;;;11.56;77.43;97324.91;105435;1254;72793;-39
2024/03/29 10:17:11;;;;;;;;;;;;;;;11.68;77.44;97332.52;105248;1254;62843;-40
2024/03/29 10:19:38;;;;;;;;;;;;;;;11.72;75.92;97331.60;105414;1254;62527;-42
2024/03/29 10:22:07;;;;;;;;;;;;;;;11.70;76.70;97330.95;105514;1256;78150;-41
2024/03/29 10:24:34;;;;;;;;;;;;;;;11.68;73.91;97340.04;105447;1254;65904;-41
2024/03/29 10:27:01;;;;;;;;;;;;;;;11.61;71.46;97336.78;105281;1256;72538;-41
2024/03/29 10:29:29;;;;;;;;;;;;;;;11.50;70.07;97344.17;105574;1256;62047;-42
2024/03/29 10:31:56;;;;;;;;;;;;;;;11.38;69.45;97343.81;105685;1255;62162;-42
2024/03/29 10:34:27;;;;;;;;;;;;;;;11.31;69.61;97350.20;105581;1253;75823;-39
2024/03/29 10:36:54;;;;;;;;;;;;;;;11.30;69.91;97343.93;105448;1257;67392;-41
2024/03/29 10:39:21;;;;;;;;;;;;;;;11.36;71.15;97342.32;105573;1254;72834;-47
2024/03/29 10:41:48;;;;;;;;;;;;;;;11.47;70.34;97340.02;105667;1257;62065;-43
2024/03/29 10:44:18;;;;;;;;;;;;;;;11.57;68.62;97358.27;105579;1252;62083;-38
2024/03/29 10:46:47;;;;;;;;;;;;;;;11.63;67.74;97358.12;105816;1255;76177;-43
2024/03/29 10:49:16;;;;;;;;;;;;;;;11.75;68.23;97354.48;105538;1258;66837;-50
2024/03/29 10:51:46;;;;;;;;;;;;;;;11.89;67.34;97360.66;105724;1255;71219;-44
2024/03/29 10:54:13;;;;;;;;;;;;;;;11.95;66.99;97363.16;105775;1256;62070;-39
2024/03/29 10:56:44;;;;;;;;;;;;;;;11.98;66.37;97356.16;105843;1254;62069;-41
2024/03/29 10:59:13;;;;;;;;;;;;;;;12.08;65.25;97360.09;105698;1251;76212;-38
2024/03/29 11:01:41;;;;;;;;;;;;;;;12.28;64.62;97358.23;105754;1254;66782;-41
2024/03/29 11:04:11;;;;;;;;;;;;;;;12.61;62.99;97363.14;105696;1254;73364;-39
2024/03/29 11:06:40;;;;;;;;;;;;;;;13.02;62.63;97364.22;105616;1255;62056;-40
2024/03/29 11:09:08;;;;;;;;;;;;;;;13.27;61.71;97355.97;105508;1254;62406;-41
2024/03/29 11:11:37;;;;;;;;;;;;;;;13.34;61.35;97364.95;105692;1254;77871;-42
2024/03/29 11:14:07;;;;;;;;;;;;;;;13.29;60.45;97367.29;105533;1254;66860;-40
2024/03/29 11:16:34;;;;;;;;;;;;;;;13.44;59.62;97369.36;105665;1255;73401;-41
2024/03/29 11:19:04;;;;;;;;;;;;;;;13.74;59.62;97363.02;105464;1257;240532;-41
2024/03/29 11:21:32;;;;;;;;;;;;;;;14.31;57.13;97361.54;105582;1255;62171;-41
2024/03/29 11:24:01;;;;;;;;;;;;;;;14.90;54.97;97357.57;105421;1253;75911;-43
2024/03/29 11:26:29;;;;;;;;;;;;;;;15.46;53.02;97352.66;105442;1260;65313;-40
2024/03/29 11:28:58;;;;;;;;;;;;;;;16.07;52.53;97345.26;105816;1255;73083;-38
2024/03/29 11:31:26;;;;;;;;;;;;;;;16.83;50.09;97348.63;105479;1260;61993;-40
2024/03/29 11:33:53;;;;;;;;;;;;;;;17.41;48.34;97348.60;105813;1254;62046;-41
2024/03/29 11:36:24;;;;;;;;;;;;;;;17.91;46.37;97352.06;105781;1257;76706;-40
2024/03/29 11:38:52;;;;;;;;;;;;;;;18.34;44.59;97351.38;105793;1256;67209;-40
2024/03/29 11:41:26;;;;;;;;;;;;;;;18.84;44.62;97346.30;105785;1255;73261;-40
2024/03/29 11:43:54;;;;;;;;;;;;;;;19.64;42.95;97341.26;105547;1255;61922;-40
2024/03/29 11:46:21;;;;;;;;;;;;;;;20.41;42.69;97345.11;105852;1256;62146;-41
2024/03/29 11:48:54;;;;;;;;;;;;;;;21.15;40.91;97347.23;105800;1257;76125;-39
2024/03/29 11:51:23;;;;;;;;;;;;;;;21.79;40.01;97349.52;105849;1255;67718;-38
2024/03/29 11:53:52;;;;;;;;;;;;;;;22.14;34.66;97362.25;105552;1256;73054;-40
2024/03/29 11:56:19;;;;;;;;;;;;;;;21.85;34.54;97365.15;105777;1256;62056;-42
2024/03/29 11:58:48;;;;;;;;;;;;;;;21.77;36.04;97371.55;105755;1254;62088;-42
2024/03/29 12:01:16;;;;;;;;;;;;;;;22.22;35.84;97370.16;105618;1257;76117;-41
2024/03/29 12:03:43;;;;;;;;;;;;;;;22.77;34.78;97372.50;105462;1255;67240;-41
2024/03/29 12:06:11;;;;;;;;;;;;;;;23.31;33.82;97382.02;105722;1256;74576;-41
2024/03/29 12:08:38;;;;;;;;;;;;;;;23.63;32.25;97375.23;107320;1256;62024;-39
2024/03/29 12:11:06;;;;;;;;;;;;;;;23.58;31.65;97388.02;105536;1256;62062;-41
2024/03/29 12:13:33;;;;;;;;;;;;;;;23.07;31.43;97383.45;105518;1257;76092;-40
2024/03/29 12:16:00;;;;;;;;;;;;;;;22.61;32.37;97389.25;105661;1256;65857;-41
2024/03/29 12:18:28;;;;;;;;;;;;;;;22.60;32.99;97378.03;107405;1256;75059;-39
2024/03/29 12:20:55;;;;;;;;;;;;;;;22.98;33.06;97372.73;105495;1266;62031;-41
2024/03/29 12:23:22;;;;;;;;;;;;;;;23.47;32.28;97375.27;105558;1252;62069;-40
2024/03/29 12:25:51;;;;;;;;;;;;;;;23.49;30.73;97385.66;105777;1255;76210;-39
2024/03/29 12:28:18;;;;;;;;;;;;;;;22.76;32.30;97382.86;105564;1263;65141;-39
2024/03/29 12:30:46;;;;;;;;;;;;;;;22.16;32.13;97387.36;105694;1254;73308;-41
2024/03/29 12:33:14;;;;;;;;;;;;;;;21.79;32.27;97397.27;105882;1256;62067;-40
2024/03/29 12:35:43;;;;;;;;;;;;;;;21.37;33.12;97398.35;105912;1256;62117;-40
2024/03/29 12:38:14;;;;;;;;;;;;;;;21.48;33.78;97402.52;105515;1258;76303;-42
2024/03/29 12:40:43;;;;;;;;;;;;;;;22.02;33.22;97399.48;105821;1257;66720;-40
2024/03/29 12:43:10;;;;;;;;;;;;;;;22.33;32.31;97401.02;105661;1256;72849;-41
2024/03/29 12:45:38;;;;;;;;;;;;;;;21.95;33.26;97409.40;105443;1257;62079;-40
2024/03/29 12:48:12;;;;;;;;;;;;;;;21.59;33.87;97417.33;105724;1256;62117;-41